sensor_id;sensor_type;location;lat;lon;timestamp;temperature;humidity
108;DHT22;49;48.530;9.200;2022-07-21T00:01:27;24.90;2.60
108;DHT22;49;48.530;9.200;2022-07-21T00:03:54;25.00;1.00
108;DHT22;49;48.530;9.200;2022-07-21T00:06:21;25.10;1.50
108;DHT22;49;48.530;9.200;2022-07-21T00:08:50;25.10;1.00
108;DHT22;49;48.530;9.200;2022-07-21T00:11:19;25.20;2.30
108;DHT22;49;48.530;9.200;2022-07-21T00:13:47;25.20;2.20
108;DHT22;49;48.530;9.200;2022-07-21T00:16:16;25.20;3.00
108;DHT22;49;48.530;9.200;2022-07-21T00:18:43;25.00;3.30
108;DHT22;49;48.530;9.200;2022-07-21T00:21:11;24.70;4.00
108;DHT22;49;48.530;9.200;2022-07-21T00:23:41;24.60;5.00
108;DHT22;49;48.530;9.200;2022-07-21T00:26:08;24.70;5.70
108;DHT22;49;48.530;9.200;2022-07-21T00:28:38;24.70;5.10
108;DHT22;49;48.530;9.200;2022-07-21T00:31:09;24.90;3.40
108;DHT22;49;48.530;9.200;2022-07-21T00:33:36;25.10;2.10
108;DHT22;49;48.530;9.200;2022-07-21T00:36:03;25.30;1.60
108;DHT22;49;48.530;9.200;2022-07-21T00:38:33;25.40;2.70
108;DHT22;49;48.530;9.200;2022-07-21T00:41:03;25.30;3.80
108;DHT22;49;48.530;9.200;2022-07-21T00:43:33;25.40;2.70
108;DHT22;49;48.530;9.200;2022-07-21T00:46:03;25.40;1.00
108;DHT22;49;48.530;9.200;2022-07-21T00:48:31;25.60;1.80
108;DHT22;49;48.530;9.200;2022-07-21T00:51:00;25.50;1.00
108;DHT22;49;48.530;9.200;2022-07-21T00:53:32;25.70;1.00
108;DHT22;49;48.530;9.200;2022-07-21T00:56:00;25.80;1.00
108;DHT22;49;48.530;9.200;2022-07-21T00:58:28;25.70;1.00
108;DHT22;49;48.530;9.200;2022-07-21T01:00:58;25.80;1.00
108;DHT22;49;48.530;9.200;2022-07-21T01:03:29;25.80;1.00
108;DHT22;49;48.530;9.200;2022-07-21T01:05:59;25.70;1.00
108;DHT22;49;48.530;9.200;2022-07-21T01:08:27;25.70;1.30
108;DHT22;49;48.530;9.200;2022-07-21T01:10:58;25.80;1.00
108;DHT22;49;48.530;9.200;2022-07-21T01:13:25;25.60;1.50
108;DHT22;49;48.530;9.200;2022-07-21T01:15:55;25.40;2.00
108;DHT22;49;48.530;9.200;2022-07-21T01:18:24;25.20;3.30
108;DHT22;49;48.530;9.200;2022-07-21T01:20:54;25.00;2.40
108;DHT22;49;48.530;9.200;2022-07-21T01:23:23;24.90;4.30
108;DHT22;49;48.530;9.200;2022-07-21T01:25:55;24.70;4.60
108;DHT22;49;48.530;9.200;2022-07-21T01:28:24;24.90;3.90
108;DHT22;49;48.530;9.200;2022-07-21T01:30:54;25.10;1.60
108;DHT22;49;48.530;9.200;2022-07-21T01:33:24;24.80;2.50
108;DHT22;49;48.530;9.200;2022-07-21T01:35:51;24.50;4.60
108;DHT22;49;48.530;9.200;2022-07-21T01:38:20;24.30;5.40
108;DHT22;49;48.530;9.200;2022-07-21T01:41:07;24.30;4.00
108;DHT22;49;48.530;9.200;2022-07-21T01:43:51;24.40;4.60
108;DHT22;49;48.530;9.200;2022-07-21T01:46:18;24.40;4.40
108;DHT22;49;48.530;9.200;2022-07-21T01:48:45;23.90;7.00
108;DHT22;49;48.530;9.200;2022-07-21T01:51:12;23.50;8.80
108;DHT22;49;48.530;9.200;2022-07-21T01:53:40;23.80;8.80
108;DHT22;49;48.530;9.200;2022-07-21T01:56:11;24.10;6.40
108;DHT22;49;48.530;9.200;2022-07-21T01:58:41;24.40;4.70
108;DHT22;49;48.530;9.200;2022-07-21T02:01:08;24.30;4.90
108;DHT22;49;48.530;9.200;2022-07-21T02:03:35;24.20;5.30
108;DHT22;49;48.530;9.200;2022-07-21T02:06:03;24.00;6.70
108;DHT22;49;48.530;9.200;2022-07-21T02:08:31;23.90;6.80
108;DHT22;49;48.530;9.200;2022-07-21T02:10:58;24.10;5.90
108;DHT22;49;48.530;9.200;2022-07-21T02:13:26;24.20;5.60
108;DHT22;49;48.530;9.200;2022-07-21T02:15:54;24.30;4.40
108;DHT22;49;48.530;9.200;2022-07-21T02:18:21;24.50;4.40
108;DHT22;49;48.530;9.200;2022-07-21T02:20:48;24.50;2.70
108;DHT22;49;48.530;9.200;2022-07-21T02:23:16;24.60;3.80
108;DHT22;49;48.530;9.200;2022-07-21T02:25:43;24.20;4.90
108;DHT22;49;48.530;9.200;2022-07-21T02:28:11;23.90;6.30
108;DHT22;49;48.530;9.200;2022-07-21T02:30:39;23.90;5.00
108;DHT22;49;48.530;9.200;2022-07-21T02:33:06;24.10;4.60
108;DHT22;49;48.530;9.200;2022-07-21T02:35:33;24.20;5.70
108;DHT22;49;48.530;9.200;2022-07-21T02:38:00;24.40;4.30
108;DHT22;49;48.530;9.200;2022-07-21T02:40:27;24.40;3.60
108;DHT22;49;48.530;9.200;2022-07-21T02:42:54;24.50;4.40
108;DHT22;49;48.530;9.200;2022-07-21T02:45:22;24.30;3.30
108;DHT22;49;48.530;9.200;2022-07-21T02:47:52;24.30;4.10
108;DHT22;49;48.530;9.200;2022-07-21T02:50:20;24.10;4.50
108;DHT22;49;48.530;9.200;2022-07-21T02:52:48;24.20;5.50
108;DHT22;49;48.530;9.200;2022-07-21T02:55:15;24.50;4.50
108;DHT22;49;48.530;9.200;2022-07-21T02:57:42;24.50;1.00
108;DHT22;49;48.530;9.200;2022-07-21T03:00:10;24.70;3.40
108;DHT22;49;48.530;9.200;2022-07-21T03:02:37;24.70;1.50
108;DHT22;49;48.530;9.200;2022-07-21T03:05:06;24.70;2.90
108;DHT22;49;48.530;9.200;2022-07-21T03:07:33;24.70;1.00
108;DHT22;49;48.530;9.200;2022-07-21T03:10:00;24.80;2.40
108;DHT22;49;48.530;9.200;2022-07-21T03:12:27;24.60;3.40
108;DHT22;49;48.530;9.200;2022-07-21T03:14:54;24.70;3.90
108;DHT22;49;48.530;9.200;2022-07-21T03:17:22;24.70;4.90
108;DHT22;49;48.530;9.200;2022-07-21T03:19:49;24.50;5.30
108;DHT22;49;48.530;9.200;2022-07-21T03:22:17;24.70;3.90
108;DHT22;49;48.530;9.200;2022-07-21T03:24:44;24.70;3.60
108;DHT22;49;48.530;9.200;2022-07-21T03:27:11;24.70;1.80
108;DHT22;49;48.530;9.200;2022-07-21T03:29:38;24.80;1.40
108;DHT22;49;48.530;9.200;2022-07-21T03:32:05;24.80;1.70
108;DHT22;49;48.530;9.200;2022-07-21T03:34:32;24.80;1.70
108;DHT22;49;48.530;9.200;2022-07-21T03:36:59;24.80;2.60
108;DHT22;49;48.530;9.200;2022-07-21T03:39:27;24.90;2.60
108;DHT22;49;48.530;9.200;2022-07-21T03:41:54;24.90;2.40
108;DHT22;49;48.530;9.200;2022-07-21T03:44:21;24.90;1.50
108;DHT22;49;48.530;9.200;2022-07-21T03:46:48;24.90;1.00
108;DHT22;49;48.530;9.200;2022-07-21T03:49:15;24.90;3.00
108;DHT22;49;48.530;9.200;2022-07-21T03:51:42;24.90;3.00
108;DHT22;49;48.530;9.200;2022-07-21T03:54:09;24.80;3.20
108;DHT22;49;48.530;9.200;2022-07-21T03:56:37;24.80;3.70
108;DHT22;49;48.530;9.200;2022-07-21T03:59:04;24.70;4.30
108;DHT22;49;48.530;9.200;2022-07-21T04:01:31;24.70;4.70
108;DHT22;49;48.530;9.200;2022-07-21T04:03:59;24.60;4.90
108;DHT22;49;48.530;9.200;2022-07-21T04:06:26;24.60;5.20
108;DHT22;49;48.530;9.200;2022-07-21T04:08:53;24.80;3.00
108;DHT22;49;48.530;9.200;2022-07-21T04:11:20;24.80;1.00
108;DHT22;49;48.530;9.200;2022-07-21T04:13:49;24.90;2.20
108;DHT22;49;48.530;9.200;2022-07-21T04:16:19;25.00;2.90
108;DHT22;49;48.530;9.200;2022-07-21T04:18:46;25.00;3.40
108;DHT22;49;48.530;9.200;2022-07-21T04:21:15;24.90;3.20
108;DHT22;49;48.530;9.200;2022-07-21T04:23:42;24.90;3.80
108;DHT22;49;48.530;9.200;2022-07-21T04:26:09;24.80;4.10
108;DHT22;49;48.530;9.200;2022-07-21T04:28:36;24.70;4.20
108;DHT22;49;48.530;9.200;2022-07-21T04:31:05;24.80;3.90
108;DHT22;49;48.530;9.200;2022-07-21T04:33:32;24.80;3.90
108;DHT22;49;48.530;9.200;2022-07-21T04:35:59;24.80;3.90
108;DHT22;49;48.530;9.200;2022-07-21T04:38:26;24.80;3.50
108;DHT22;49;48.530;9.200;2022-07-21T04:40:53;24.80;3.90
108;DHT22;49;48.530;9.200;2022-07-21T04:43:20;24.80;3.80
108;DHT22;49;48.530;9.200;2022-07-21T04:45:47;24.80;6.00
108;DHT22;49;48.530;9.200;2022-07-21T04:48:15;24.90;4.60
108;DHT22;49;48.530;9.200;2022-07-21T04:50:42;24.90;3.90
108;DHT22;49;48.530;9.200;2022-07-21T04:53:09;24.80;3.90
108;DHT22;49;48.530;9.200;2022-07-21T04:55:36;24.90;4.70
108;DHT22;49;48.530;9.200;2022-07-21T04:58:03;25.30;2.90
108;DHT22;49;48.530;9.200;2022-07-21T05:00:30;25.50;1.70
108;DHT22;49;48.530;9.200;2022-07-21T05:02:57;25.60;1.00
108;DHT22;49;48.530;9.200;2022-07-21T05:07:56;25.70;1.00
108;DHT22;49;48.530;9.200;2022-07-21T05:10:23;25.50;2.20
108;DHT22;49;48.530;9.200;2022-07-21T05:12:50;25.60;1.00
108;DHT22;49;48.530;9.200;2022-07-21T05:15:17;25.60;1.10
108;DHT22;49;48.530;9.200;2022-07-21T05:17:44;25.40;2.20
108;DHT22;49;48.530;9.200;2022-07-21T05:20:11;25.60;2.70
108;DHT22;49;48.530;9.200;2022-07-21T05:22:39;25.60;1.70
108;DHT22;49;48.530;9.200;2022-07-21T05:25:08;25.70;2.80
108;DHT22;49;48.530;9.200;2022-07-21T05:27:35;25.90;1.70
108;DHT22;49;48.530;9.200;2022-07-21T05:30:02;25.80;2.40
108;DHT22;49;48.530;9.200;2022-07-21T05:32:29;26.00;1.00
108;DHT22;49;48.530;9.200;2022-07-21T05:34:56;26.20;1.00
108;DHT22;49;48.530;9.200;2022-07-21T05:37:23;26.30;1.00
108;DHT22;49;48.530;9.200;2022-07-21T05:39:51;26.20;2.50
108;DHT22;49;48.530;9.200;2022-07-21T05:42:19;26.50;1.80
108;DHT22;49;48.530;9.200;2022-07-21T05:44:46;26.60;1.00
108;DHT22;49;48.530;9.200;2022-07-21T05:47:13;26.70;1.00
108;DHT22;49;48.530;9.200;2022-07-21T05:49:39;27.20;1.00
108;DHT22;49;48.530;9.200;2022-07-21T05:52:06;28.30;1.00
108;DHT22;49;48.530;9.200;2022-07-21T05:54:33;28.90;1.00
108;DHT22;49;48.530;9.200;2022-07-21T05:57:00;29.70;1.00
108;DHT22;49;48.530;9.200;2022-07-21T05:59:30;30.70;1.00
108;DHT22;49;48.530;9.200;2022-07-21T06:01:58;31.40;1.00
108;DHT22;49;48.530;9.200;2022-07-21T06:04:25;32.00;1.00
108;DHT22;49;48.530;9.200;2022-07-21T06:06:52;32.70;1.00
108;DHT22;49;48.530;9.200;2022-07-21T06:09:19;33.10;1.00
108;DHT22;49;48.530;9.200;2022-07-21T06:11:46;33.80;1.00
108;DHT22;49;48.530;9.200;2022-07-21T06:14:13;34.10;1.00
108;DHT22;49;48.530;9.200;2022-07-21T06:16:42;34.70;1.00
108;DHT22;49;48.530;9.200;2022-07-21T06:19:09;35.00;1.00
108;DHT22;49;48.530;9.200;2022-07-21T06:21:35;35.10;1.00
108;DHT22;49;48.530;9.200;2022-07-21T06:24:03;35.60;1.00
108;DHT22;49;48.530;9.200;2022-07-21T06:26:29;35.70;1.00
108;DHT22;49;48.530;9.200;2022-07-21T06:28:56;36.00;1.00
108;DHT22;49;48.530;9.200;2022-07-21T06:31:24;36.10;1.00
108;DHT22;49;48.530;9.200;2022-07-21T06:33:52;36.10;1.00
108;DHT22;49;48.530;9.200;2022-07-21T06:36:19;35.70;1.00
108;DHT22;49;48.530;9.200;2022-07-21T06:38:46;35.60;1.00
108;DHT22;49;48.530;9.200;2022-07-21T06:41:13;36.10;1.00
108;DHT22;49;48.530;9.200;2022-07-21T06:43:41;36.00;1.00
108;DHT22;49;48.530;9.200;2022-07-21T06:46:07;36.10;1.00
108;DHT22;49;48.530;9.200;2022-07-21T06:48:34;36.10;1.00
108;DHT22;49;48.530;9.200;2022-07-21T06:51:03;35.80;1.00
108;DHT22;49;48.530;9.200;2022-07-21T06:53:30;35.80;1.00
108;DHT22;49;48.530;9.200;2022-07-21T06:58:33;35.60;1.00
108;DHT22;49;48.530;9.200;2022-07-21T07:01:00;36.10;1.00
108;DHT22;49;48.530;9.200;2022-07-21T07:03:27;36.30;1.00
108;DHT22;49;48.530;9.200;2022-07-21T07:05:53;35.70;1.00
108;DHT22;49;48.530;9.200;2022-07-21T07:08:22;36.10;1.00
108;DHT22;49;48.530;9.200;2022-07-21T07:10:50;36.60;1.00
108;DHT22;49;48.530;9.200;2022-07-21T07:13:17;36.90;1.00
108;DHT22;49;48.530;9.200;2022-07-21T07:15:44;37.10;1.00
108;DHT22;49;48.530;9.200;2022-07-21T07:18:11;37.40;1.00
108;DHT22;49;48.530;9.200;2022-07-21T07:20:38;37.50;1.00
108;DHT22;49;48.530;9.200;2022-07-21T07:25:40;36.90;1.00
108;DHT22;49;48.530;9.200;2022-07-21T07:28:07;36.10;1.00
108;DHT22;49;48.530;9.200;2022-07-21T07:30:37;35.40;1.00
108;DHT22;49;48.530;9.200;2022-07-21T07:33:04;34.60;1.00
108;DHT22;49;48.530;9.200;2022-07-21T07:35:31;34.10;1.00
108;DHT22;49;48.530;9.200;2022-07-21T07:40:28;33.30;1.00
108;DHT22;49;48.530;9.200;2022-07-21T07:42:57;33.30;1.00
108;DHT22;49;48.530;9.200;2022-07-21T07:45:24;34.50;1.00
108;DHT22;49;48.530;9.200;2022-07-21T07:47:52;34.80;1.00
108;DHT22;49;48.530;9.200;2022-07-21T07:50:19;35.20;1.00
108;DHT22;49;48.530;9.200;2022-07-21T07:52:46;35.10;1.00
108;DHT22;49;48.530;9.200;2022-07-21T07:55:13;34.70;1.00
108;DHT22;49;48.530;9.200;2022-07-21T07:57:42;34.00;1.00
108;DHT22;49;48.530;9.200;2022-07-21T08:00:15;34.20;1.00
108;DHT22;49;48.530;9.200;2022-07-21T08:02:42;33.90;1.00
108;DHT22;49;48.530;9.200;2022-07-21T08:05:09;33.10;1.00
108;DHT22;49;48.530;9.200;2022-07-21T08:07:37;33.60;1.00
108;DHT22;49;48.530;9.200;2022-07-21T08:10:05;34.30;1.00
108;DHT22;49;48.530;9.200;2022-07-21T08:12:32;35.10;1.00
108;DHT22;49;48.530;9.200;2022-07-21T08:14:59;36.10;1.00
108;DHT22;49;48.530;9.200;2022-07-21T08:17:27;36.50;1.00
108;DHT22;49;48.530;9.200;2022-07-21T08:19:54;36.30;1.00
108;DHT22;49;48.530;9.200;2022-07-21T08:22:21;35.80;1.00
108;DHT22;49;48.530;9.200;2022-07-21T08:24:48;36.80;1.00
108;DHT22;49;48.530;9.200;2022-07-21T08:27:16;36.70;1.00
108;DHT22;49;48.530;9.200;2022-07-21T08:29:43;37.10;1.00
108;DHT22;49;48.530;9.200;2022-07-21T08:32:13;37.30;1.00
108;DHT22;49;48.530;9.200;2022-07-21T08:34:41;37.10;1.00
108;DHT22;49;48.530;9.200;2022-07-21T08:37:08;35.60;1.00
108;DHT22;49;48.530;9.200;2022-07-21T08:39:35;34.40;1.00
108;DHT22;49;48.530;9.200;2022-07-21T08:42:04;34.20;1.00
108;DHT22;49;48.530;9.200;2022-07-21T08:44:32;34.00;1.00
108;DHT22;49;48.530;9.200;2022-07-21T08:46:59;34.50;1.00
108;DHT22;49;48.530;9.200;2022-07-21T08:49:27;35.20;1.00
108;DHT22;49;48.530;9.200;2022-07-21T08:51:56;35.20;1.00
108;DHT22;49;48.530;9.200;2022-07-21T08:54:23;35.00;1.00
108;DHT22;49;48.530;9.200;2022-07-21T08:56:50;34.40;1.00
108;DHT22;49;48.530;9.200;2022-07-21T08:59:17;33.90;1.00
108;DHT22;49;48.530;9.200;2022-07-21T09:01:44;33.80;1.00
108;DHT22;49;48.530;9.200;2022-07-21T09:04:22;33.90;1.00
108;DHT22;49;48.530;9.200;2022-07-21T09:06:54;33.30;1.00
108;DHT22;49;48.530;9.200;2022-07-21T09:09:24;32.60;1.00
108;DHT22;49;48.530;9.200;2022-07-21T09:11:52;32.40;1.00
108;DHT22;49;48.530;9.200;2022-07-21T09:14:21;32.50;1.00
108;DHT22;49;48.530;9.200;2022-07-21T09:19:21;33.20;1.00
108;DHT22;49;48.530;9.200;2022-07-21T09:21:50;33.30;1.00
108;DHT22;49;48.530;9.200;2022-07-21T09:24:24;32.60;1.00
108;DHT22;49;48.530;9.200;2022-07-21T09:27:07;32.50;1.00
108;DHT22;49;48.530;9.200;2022-07-21T09:32:13;31.90;1.00
108;DHT22;49;48.530;9.200;2022-07-21T09:34:41;32.30;1.00
108;DHT22;49;48.530;9.200;2022-07-21T09:39:48;32.60;1.00
108;DHT22;49;48.530;9.200;2022-07-21T09:42:20;32.70;1.00
108;DHT22;49;48.530;9.200;2022-07-21T09:44:49;32.30;1.00
108;DHT22;49;48.530;9.200;2022-07-21T09:47:19;32.60;1.00
108;DHT22;49;48.530;9.200;2022-07-21T09:49:49;32.80;1.00
108;DHT22;49;48.530;9.200;2022-07-21T09:52:25;32.90;1.00
108;DHT22;49;48.530;9.200;2022-07-21T09:54:55;32.90;1.00
108;DHT22;49;48.530;9.200;2022-07-21T10:02:23;32.50;1.00
108;DHT22;49;48.530;9.200;2022-07-21T10:09:55;32.80;1.00
108;DHT22;49;48.530;9.200;2022-07-21T10:14:53;32.50;1.00
108;DHT22;49;48.530;9.200;2022-07-21T10:17:31;32.50;1.00
108;DHT22;49;48.530;9.200;2022-07-21T10:20:03;32.80;1.00
108;DHT22;49;48.530;9.200;2022-07-21T10:22:44;32.40;1.00
108;DHT22;49;48.530;9.200;2022-07-21T10:25:19;32.10;1.00
108;DHT22;49;48.530;9.200;2022-07-21T10:28:17;31.60;1.00
108;DHT22;49;48.530;9.200;2022-07-21T10:30:49;31.30;1.00
108;DHT22;49;48.530;9.200;2022-07-21T10:35:51;30.50;1.00
108;DHT22;49;48.530;9.200;2022-07-21T10:38:27;30.00;1.00
108;DHT22;49;48.530;9.200;2022-07-21T10:40:57;30.30;1.00
108;DHT22;49;48.530;9.200;2022-07-21T10:45:59;31.40;1.00
108;DHT22;49;48.530;9.200;2022-07-21T10:48:47;31.40;1.00
108;DHT22;49;48.530;9.200;2022-07-21T10:51:15;31.00;1.00
108;DHT22;49;48.530;9.200;2022-07-21T10:53:43;30.40;1.00
108;DHT22;49;48.530;9.200;2022-07-21T10:56:28;30.00;1.00
108;DHT22;49;48.530;9.200;2022-07-21T10:58:57;30.40;1.00
108;DHT22;49;48.530;9.200;2022-07-21T11:01:24;31.10;1.00
108;DHT22;49;48.530;9.200;2022-07-21T11:04:07;31.40;1.00
108;DHT22;49;48.530;9.200;2022-07-21T11:09:12;31.30;1.00
108;DHT22;49;48.530;9.200;2022-07-21T11:11:57;31.60;1.00
108;DHT22;49;48.530;9.200;2022-07-21T11:14:36;31.40;1.00
108;DHT22;49;48.530;9.200;2022-07-21T11:17:03;30.90;1.00
108;DHT22;49;48.530;9.200;2022-07-21T11:19:34;31.20;1.00
108;DHT22;49;48.530;9.200;2022-07-21T11:22:05;31.50;1.00
108;DHT22;49;48.530;9.200;2022-07-21T11:24:33;31.70;1.00
108;DHT22;49;48.530;9.200;2022-07-21T11:27:04;31.80;1.00
108;DHT22;49;48.530;9.200;2022-07-21T11:29:31;32.10;1.00
108;DHT22;49;48.530;9.200;2022-07-21T11:31:59;32.30;1.00
108;DHT22;49;48.530;9.200;2022-07-21T11:34:45;32.30;1.00
108;DHT22;49;48.530;9.200;2022-07-21T11:37:15;32.00;1.00
108;DHT22;49;48.530;9.200;2022-07-21T11:39:42;31.90;1.00
108;DHT22;49;48.530;9.200;2022-07-21T11:42:13;31.90;1.00
108;DHT22;49;48.530;9.200;2022-07-21T11:45:03;31.80;1.00
108;DHT22;49;48.530;9.200;2022-07-21T11:47:30;32.10;1.00
108;DHT22;49;48.530;9.200;2022-07-21T11:49:59;32.10;1.00
108;DHT22;49;48.530;9.200;2022-07-21T11:52:28;32.20;1.00
108;DHT22;49;48.530;9.200;2022-07-21T11:55:01;32.20;1.00
108;DHT22;49;48.530;9.200;2022-07-21T11:57:30;32.20;1.00
108;DHT22;49;48.530;9.200;2022-07-21T12:00:14;31.90;1.00
108;DHT22;49;48.530;9.200;2022-07-21T12:02:42;32.30;1.00
108;DHT22;49;48.530;9.200;2022-07-21T12:05:09;32.30;1.00
108;DHT22;49;48.530;9.200;2022-07-21T12:07:40;32.20;1.00
108;DHT22;49;48.530;9.200;2022-07-21T12:10:10;32.40;1.00
108;DHT22;49;48.530;9.200;2022-07-21T12:12:40;32.50;1.00
108;DHT22;49;48.530;9.200;2022-07-21T12:15:13;32.70;1.00
108;DHT22;49;48.530;9.200;2022-07-21T12:17:43;32.80;1.00
108;DHT22;49;48.530;9.200;2022-07-21T12:20:10;32.80;1.00
108;DHT22;49;48.530;9.200;2022-07-21T12:22:41;33.10;1.00
108;DHT22;49;48.530;9.200;2022-07-21T12:25:10;33.20;1.00
108;DHT22;49;48.530;9.200;2022-07-21T12:27:41;33.00;1.00
108;DHT22;49;48.530;9.200;2022-07-21T12:30:10;32.90;1.00
108;DHT22;49;48.530;9.200;2022-07-21T12:33:01;32.50;1.00
108;DHT22;49;48.530;9.200;2022-07-21T12:35:29;32.10;1.00
108;DHT22;49;48.530;9.200;2022-07-21T12:38:01;32.10;1.00
108;DHT22;49;48.530;9.200;2022-07-21T12:40:30;32.20;1.00
108;DHT22;49;48.530;9.200;2022-07-21T12:43:08;32.30;1.00
108;DHT22;49;48.530;9.200;2022-07-21T12:45:47;32.10;1.00
108;DHT22;49;48.530;9.200;2022-07-21T12:48:17;32.10;1.00
108;DHT22;49;48.530;9.200;2022-07-21T12:50:59;32.30;1.00
108;DHT22;49;48.530;9.200;2022-07-21T12:53:26;32.50;1.00
108;DHT22;49;48.530;9.200;2022-07-21T12:55:53;32.30;1.00
108;DHT22;49;48.530;9.200;2022-07-21T12:58:21;32.20;1.00
108;DHT22;49;48.530;9.200;2022-07-21T13:00:48;32.30;1.00
108;DHT22;49;48.530;9.200;2022-07-21T13:03:15;32.80;1.00
108;DHT22;49;48.530;9.200;2022-07-21T13:05:42;32.80;1.00
108;DHT22;49;48.530;9.200;2022-07-21T13:08:09;32.90;1.00
108;DHT22;49;48.530;9.200;2022-07-21T13:10:36;33.00;1.00
108;DHT22;49;48.530;9.200;2022-07-21T13:13:04;33.00;1.00
108;DHT22;49;48.530;9.200;2022-07-21T13:15:32;33.30;1.00
108;DHT22;49;48.530;9.200;2022-07-21T13:17:59;32.60;1.00
108;DHT22;49;48.530;9.200;2022-07-21T13:20:26;32.80;1.00
108;DHT22;49;48.530;9.200;2022-07-21T13:22:53;33.10;1.00
108;DHT22;49;48.530;9.200;2022-07-21T13:25:20;33.20;1.00
108;DHT22;49;48.530;9.200;2022-07-21T13:27:47;33.10;1.00
108;DHT22;49;48.530;9.200;2022-07-21T13:30:14;33.20;1.00
108;DHT22;49;48.530;9.200;2022-07-21T13:32:45;33.50;1.00
108;DHT22;49;48.530;9.200;2022-07-21T13:35:15;33.50;1.00
108;DHT22;49;48.530;9.200;2022-07-21T13:37:42;33.30;1.00
108;DHT22;49;48.530;9.200;2022-07-21T13:40:09;33.70;1.00
108;DHT22;49;48.530;9.200;2022-07-21T13:42:37;33.90;1.00
108;DHT22;49;48.530;9.200;2022-07-21T13:45:04;34.00;1.00
108;DHT22;49;48.530;9.200;2022-07-21T13:47:33;33.90;1.00
108;DHT22;49;48.530;9.200;2022-07-21T13:50:02;33.40;1.00
108;DHT22;49;48.530;9.200;2022-07-21T13:52:31;33.40;1.00
108;DHT22;49;48.530;9.200;2022-07-21T13:54:58;33.40;1.00
108;DHT22;49;48.530;9.200;2022-07-21T13:57:27;33.10;1.00
108;DHT22;49;48.530;9.200;2022-07-21T13:59:54;32.60;1.00
108;DHT22;49;48.530;9.200;2022-07-21T14:02:21;32.50;1.00
108;DHT22;49;48.530;9.200;2022-07-21T14:04:48;32.50;1.00
108;DHT22;49;48.530;9.200;2022-07-21T14:07:16;32.10;1.00
108;DHT22;49;48.530;9.200;2022-07-21T14:09:44;32.40;1.00
108;DHT22;49;48.530;9.200;2022-07-21T14:12:11;33.00;1.00
108;DHT22;49;48.530;9.200;2022-07-21T14:14:38;32.60;1.00
108;DHT22;49;48.530;9.200;2022-07-21T14:17:05;32.90;1.00
108;DHT22;49;48.530;9.200;2022-07-21T14:19:32;33.30;1.00
108;DHT22;49;48.530;9.200;2022-07-21T14:21:59;33.70;1.00
108;DHT22;49;48.530;9.200;2022-07-21T14:24:27;33.70;1.00
108;DHT22;49;48.530;9.200;2022-07-21T14:27:11;33.80;1.00
108;DHT22;49;48.530;9.200;2022-07-21T14:29:38;33.80;1.00
108;DHT22;49;48.530;9.200;2022-07-21T14:32:05;33.60;1.00
108;DHT22;49;48.530;9.200;2022-07-21T14:34:32;33.60;1.00
108;DHT22;49;48.530;9.200;2022-07-21T14:36:59;33.50;1.00
108;DHT22;49;48.530;9.200;2022-07-21T14:39:28;33.30;1.00
108;DHT22;49;48.530;9.200;2022-07-21T14:41:55;33.10;1.00
108;DHT22;49;48.530;9.200;2022-07-21T14:44:22;33.40;1.00
108;DHT22;49;48.530;9.200;2022-07-21T14:46:48;33.10;1.00
108;DHT22;49;48.530;9.200;2022-07-21T14:49:15;33.20;1.00
108;DHT22;49;48.530;9.200;2022-07-21T14:51:42;33.00;1.00
108;DHT22;49;48.530;9.200;2022-07-21T14:54:09;33.10;1.00
108;DHT22;49;48.530;9.200;2022-07-21T14:56:37;33.10;1.00
108;DHT22;49;48.530;9.200;2022-07-21T14:59:06;33.20;1.00
108;DHT22;49;48.530;9.200;2022-07-21T15:01:33;33.30;1.00
108;DHT22;49;48.530;9.200;2022-07-21T15:04:00;33.00;1.00
108;DHT22;49;48.530;9.200;2022-07-21T15:06:27;33.10;1.00
108;DHT22;49;48.530;9.200;2022-07-21T15:08:55;33.10;1.00
108;DHT22;49;48.530;9.200;2022-07-21T15:11:23;33.00;1.00
108;DHT22;49;48.530;9.200;2022-07-21T15:13:52;33.00;1.00
108;DHT22;49;48.530;9.200;2022-07-21T15:16:19;33.10;1.00
108;DHT22;49;48.530;9.200;2022-07-21T15:18:45;32.80;1.00
108;DHT22;49;48.530;9.200;2022-07-21T15:21:13;32.30;1.00
108;DHT22;49;48.530;9.200;2022-07-21T15:23:40;32.30;1.00
108;DHT22;49;48.530;9.200;2022-07-21T15:26:07;32.50;1.00
108;DHT22;49;48.530;9.200;2022-07-21T15:28:34;32.40;1.00
108;DHT22;49;48.530;9.200;2022-07-21T15:31:02;32.30;1.00
108;DHT22;49;48.530;9.200;2022-07-21T15:33:29;32.40;1.00
108;DHT22;49;48.530;9.200;2022-07-21T15:35:55;32.30;1.00
108;DHT22;49;48.530;9.200;2022-07-21T15:38:23;31.90;1.00
108;DHT22;49;48.530;9.200;2022-07-21T15:40:51;31.80;1.00
108;DHT22;49;48.530;9.200;2022-07-21T15:43:18;32.10;1.00
108;DHT22;49;48.530;9.200;2022-07-21T15:45:46;32.20;1.00
108;DHT22;49;48.530;9.200;2022-07-21T15:48:15;32.40;1.00
108;DHT22;49;48.530;9.200;2022-07-21T15:50:42;32.80;1.00
108;DHT22;49;48.530;9.200;2022-07-21T15:53:08;32.90;1.00
108;DHT22;49;48.530;9.200;2022-07-21T15:55:35;32.80;1.00
108;DHT22;49;48.530;9.200;2022-07-21T15:58:03;32.70;1.00
108;DHT22;49;48.530;9.200;2022-07-21T16:00:30;32.80;1.00
108;DHT22;49;48.530;9.200;2022-07-21T16:02:57;32.70;1.00
108;DHT22;49;48.530;9.200;2022-07-21T16:05:26;32.20;1.00
108;DHT22;49;48.530;9.200;2022-07-21T16:07:54;31.60;1.00
108;DHT22;49;48.530;9.200;2022-07-21T16:10:23;31.20;1.00
108;DHT22;49;48.530;9.200;2022-07-21T16:12:51;31.00;1.00
108;DHT22;49;48.530;9.200;2022-07-21T16:15:20;30.80;1.00
108;DHT22;49;48.530;9.200;2022-07-21T16:17:48;30.60;1.00
108;DHT22;49;48.530;9.200;2022-07-21T16:20:17;30.40;1.00
108;DHT22;49;48.530;9.200;2022-07-21T16:22:45;30.50;1.00
108;DHT22;49;48.530;9.200;2022-07-21T16:25:14;30.60;1.00
108;DHT22;49;48.530;9.200;2022-07-21T16:27:41;30.70;1.00
108;DHT22;49;48.530;9.200;2022-07-21T16:30:09;30.80;1.00
108;DHT22;49;48.530;9.200;2022-07-21T16:32:36;30.90;1.00
108;DHT22;49;48.530;9.200;2022-07-21T16:35:04;31.00;1.00
108;DHT22;49;48.530;9.200;2022-07-21T16:37:31;30.70;1.00
108;DHT22;49;48.530;9.200;2022-07-21T16:39:59;30.50;1.00
108;DHT22;49;48.530;9.200;2022-07-21T16:42:29;30.60;1.00
108;DHT22;49;48.530;9.200;2022-07-21T16:44:56;30.90;1.00
108;DHT22;49;48.530;9.200;2022-07-21T16:47:23;31.10;1.00
108;DHT22;49;48.530;9.200;2022-07-21T16:49:50;31.10;1.00
108;DHT22;49;48.530;9.200;2022-07-21T16:52:19;31.10;1.00
108;DHT22;49;48.530;9.200;2022-07-21T16:54:47;31.10;1.00
108;DHT22;49;48.530;9.200;2022-07-21T16:57:16;31.40;1.00
108;DHT22;49;48.530;9.200;2022-07-21T16:59:43;31.30;1.00
108;DHT22;49;48.530;9.200;2022-07-21T17:02:10;31.30;1.00
108;DHT22;49;48.530;9.200;2022-07-21T17:04:37;31.60;1.00
108;DHT22;49;48.530;9.200;2022-07-21T17:07:04;31.80;1.00
108;DHT22;49;48.530;9.200;2022-07-21T17:09:31;31.40;1.00
108;DHT22;49;48.530;9.200;2022-07-21T17:11:58;31.80;1.00
108;DHT22;49;48.530;9.200;2022-07-21T17:14:26;31.60;1.00
108;DHT22;49;48.530;9.200;2022-07-21T17:16:53;31.70;1.00
108;DHT22;49;48.530;9.200;2022-07-21T17:19:20;31.50;1.00
108;DHT22;49;48.530;9.200;2022-07-21T17:21:47;31.40;1.00
108;DHT22;49;48.530;9.200;2022-07-21T17:24:14;31.50;1.00
108;DHT22;49;48.530;9.200;2022-07-21T17:26:41;31.30;1.00
108;DHT22;49;48.530;9.200;2022-07-21T17:29:08;31.40;1.00
108;DHT22;49;48.530;9.200;2022-07-21T17:31:37;31.10;1.00
108;DHT22;49;48.530;9.200;2022-07-21T17:34:03;30.80;1.00
108;DHT22;49;48.530;9.200;2022-07-21T17:36:30;30.50;1.00
108;DHT22;49;48.530;9.200;2022-07-21T17:38:57;30.50;1.00
108;DHT22;49;48.530;9.200;2022-07-21T17:41:24;30.30;1.00
108;DHT22;49;48.530;9.200;2022-07-21T17:43:51;30.30;1.00
108;DHT22;49;48.530;9.200;2022-07-21T17:46:18;30.10;1.00
108;DHT22;49;48.530;9.200;2022-07-21T17:48:46;30.20;1.00
108;DHT22;49;48.530;9.200;2022-07-21T17:51:13;30.10;1.00
108;DHT22;49;48.530;9.200;2022-07-21T17:53:43;30.40;1.00
108;DHT22;49;48.530;9.200;2022-07-21T17:56:10;30.40;1.00